sensor_id;sensor_type;location;lat;lon;timestamp;P1;durP1;ratioP1;P2;durP2;ratioP2
1765;SDS011;880;52.452;8.656;2024-03-06T00:00:12;11.98;;;10.98;;
1765;SDS011;880;52.452;8.656;2024-03-06T00:02:39;15.25;;;10.20;;
1765;SDS011;880;52.452;8.656;2024-03-06T00:05:07;11.07;;;9.68;;
1765;SDS011;880;52.452;8.656;2024-03-06T00:07:35;13.00;;;11.73;;
1765;SDS011;880;52.452;8.656;2024-03-06T00:10:02;13.25;;;8.75;;
1765;SDS011;880;52.452;8.656;2024-03-06T00:12:31;12.00;;;10.65;;
1765;SDS011;880;52.452;8.656;2024-03-06T00:14:58;11.48;;;10.48;;
1765;SDS011;880;52.452;8.656;2024-03-06T00:17:25;13.02;;;11.82;;
1765;SDS011;880;52.452;8.656;2024-03-06T00:19:53;12.50;;;11.20;;
1765;SDS011;880;52.452;8.656;2024-03-06T00:22:20;11.68;;;10.63;;
1765;SDS011;880;52.452;8.656;2024-03-06T00:24:49;10.85;;;9.75;;
1765;SDS011;880;52.452;8.656;2024-03-06T00:27:17;16.80;;;11.00;;
1765;SDS011;880;52.452;8.656;2024-03-06T00:29:44;11.25;;;9.90;;
1765;SDS011;880;52.452;8.656;2024-03-06T00:32:11;12.30;;;11.05;;
1765;SDS011;880;52.452;8.656;2024-03-06T00:34:39;12.85;;;11.18;;
1765;SDS011;880;52.452;8.656;2024-03-06T00:37:06;10.93;;;9.88;;
1765;SDS011;880;52.452;8.656;2024-03-06T00:39:33;12.98;;;11.65;;
1765;SDS011;880;52.452;8.656;2024-03-06T00:42:00;12.38;;;11.13;;
1765;SDS011;880;52.452;8.656;2024-03-06T00:44:27;11.70;;;10.60;;
1765;SDS011;880;52.452;8.656;2024-03-06T00:46:54;10.95;;;10.05;;
1765;SDS011;880;52.452;8.656;2024-03-06T00:49:21;11.30;;;10.20;;
1765;SDS011;880;52.452;8.656;2024-03-06T00:51:48;12.93;;;11.23;;
1765;SDS011;880;52.452;8.656;2024-03-06T00:54:15;10.05;;;8.98;;
1765;SDS011;880;52.452;8.656;2024-03-06T00:56:43;11.90;;;10.80;;
1765;SDS011;880;52.452;8.656;2024-03-06T00:59:10;13.32;;;12.02;;
1765;SDS011;880;52.452;8.656;2024-03-06T01:01:37;12.48;;;11.15;;
1765;SDS011;880;52.452;8.656;2024-03-06T01:04:04;12.68;;;11.38;;
1765;SDS011;880;52.452;8.656;2024-03-06T01:06:32;12.38;;;11.23;;
1765;SDS011;880;52.452;8.656;2024-03-06T01:08:59;12.07;;;11.18;;
1765;SDS011;880;52.452;8.656;2024-03-06T01:11:26;14.65;;;11.35;;
1765;SDS011;880;52.452;8.656;2024-03-06T01:13:54;9.93;;;8.93;;
1765;SDS011;880;52.452;8.656;2024-03-06T01:16:21;12.45;;;8.13;;
1765;SDS011;880;52.452;8.656;2024-03-06T01:18:48;16.30;;;13.02;;
1765;SDS011;880;52.452;8.656;2024-03-06T01:21:15;11.55;;;10.60;;
1765;SDS011;880;52.452;8.656;2024-03-06T01:23:43;13.18;;;11.82;;
1765;SDS011;880;52.452;8.656;2024-03-06T01:26:10;14.23;;;12.75;;
1765;SDS011;880;52.452;8.656;2024-03-06T01:28:38;12.20;;;11.13;;
1765;SDS011;880;52.452;8.656;2024-03-06T01:31:05;12.23;;;7.68;;
1765;SDS011;880;52.452;8.656;2024-03-06T01:33:33;15.00;;;11.38;;
1765;SDS011;880;52.452;8.656;2024-03-06T01:36:00;12.68;;;10.68;;
1765;SDS011;880;52.452;8.656;2024-03-06T01:38:27;12.52;;;10.70;;
1765;SDS011;880;52.452;8.656;2024-03-06T01:40:54;14.40;;;11.85;;
1765;SDS011;880;52.452;8.656;2024-03-06T01:43:22;12.50;;;11.30;;
1765;SDS011;880;52.452;8.656;2024-03-06T01:45:52;14.35;;;12.98;;
1765;SDS011;880;52.452;8.656;2024-03-06T01:48:21;13.90;;;11.52;;
1765;SDS011;880;52.452;8.656;2024-03-06T01:50:56;12.23;;;11.13;;
1765;SDS011;880;52.452;8.656;2024-03-06T01:53:27;16.25;;;11.50;;
1765;SDS011;880;52.452;8.656;2024-03-06T01:55:56;16.88;;;10.55;;
1765;SDS011;880;52.452;8.656;2024-03-06T01:58:24;11.70;;;10.60;;
1765;SDS011;880;52.452;8.656;2024-03-06T02:00:52;13.55;;;11.98;;
1765;SDS011;880;52.452;8.656;2024-03-06T02:03:20;13.43;;;11.68;;
1765;SDS011;880;52.452;8.656;2024-03-06T02:05:48;15.23;;;11.02;;
1765;SDS011;880;52.452;8.656;2024-03-06T02:08:16;13.88;;;12.23;;
1765;SDS011;880;52.452;8.656;2024-03-06T02:10:44;14.82;;;12.07;;
1765;SDS011;880;52.452;8.656;2024-03-06T02:13:13;16.67;;;10.57;;
1765;SDS011;880;52.452;8.656;2024-03-06T02:15:41;11.00;;;9.90;;
1765;SDS011;880;52.452;8.656;2024-03-06T02:18:08;12.23;;;10.80;;
1765;SDS011;880;52.452;8.656;2024-03-06T02:20:39;17.73;;;11.98;;
1765;SDS011;880;52.452;8.656;2024-03-06T02:23:07;12.55;;;9.93;;
1765;SDS011;880;52.452;8.656;2024-03-06T02:25:34;12.40;;;11.20;;
1765;SDS011;880;52.452;8.656;2024-03-06T02:28:02;12.77;;;11.52;;
1765;SDS011;880;52.452;8.656;2024-03-06T02:30:30;12.70;;;11.32;;
1765;SDS011;880;52.452;8.656;2024-03-06T02:33:03;13.82;;;12.00;;
1765;SDS011;880;52.452;8.656;2024-03-06T02:35:30;12.52;;;11.30;;
1765;SDS011;880;52.452;8.656;2024-03-06T02:37:58;12.63;;;10.05;;
1765;SDS011;880;52.452;8.656;2024-03-06T02:40:26;13.07;;;11.55;;
1765;SDS011;880;52.452;8.656;2024-03-06T02:42:53;16.77;;;13.48;;
1765;SDS011;880;52.452;8.656;2024-03-06T02:45:20;14.95;;;12.23;;
1765;SDS011;880;52.452;8.656;2024-03-06T02:47:47;12.98;;;11.18;;
1765;SDS011;880;52.452;8.656;2024-03-06T02:50:14;13.40;;;12.00;;
1765;SDS011;880;52.452;8.656;2024-03-06T02:52:41;17.27;;;11.55;;
1765;SDS011;880;52.452;8.656;2024-03-06T02:55:08;14.00;;;11.70;;
1765;SDS011;880;52.452;8.656;2024-03-06T02:57:35;15.32;;;13.30;;
1765;SDS011;880;52.452;8.656;2024-03-06T03:00:03;23.92;;;13.80;;
1765;SDS011;880;52.452;8.656;2024-03-06T03:02:31;14.35;;;12.80;;
1765;SDS011;880;52.452;8.656;2024-03-06T03:04:58;14.70;;;10.45;;
1765;SDS011;880;52.452;8.656;2024-03-06T03:07:25;16.33;;;13.02;;
1765;SDS011;880;52.452;8.656;2024-03-06T03:09:52;16.67;;;13.43;;
1765;SDS011;880;52.452;8.656;2024-03-06T03:12:19;17.58;;;13.23;;
1765;SDS011;880;52.452;8.656;2024-03-06T03:14:46;15.23;;;11.10;;
1765;SDS011;880;52.452;8.656;2024-03-06T03:17:13;15.10;;;9.30;;
1765;SDS011;880;52.452;8.656;2024-03-06T03:19:41;15.60;;;12.00;;
1765;SDS011;880;52.452;8.656;2024-03-06T03:22:08;19.08;;;12.32;;
1765;SDS011;880;52.452;8.656;2024-03-06T03:24:36;20.63;;;13.43;;
1765;SDS011;880;52.452;8.656;2024-03-06T03:27:03;17.73;;;13.05;;
1765;SDS011;880;52.452;8.656;2024-03-06T03:29:30;13.30;;;11.77;;
1765;SDS011;880;52.452;8.656;2024-03-06T03:31:57;16.30;;;13.10;;
1765;SDS011;880;52.452;8.656;2024-03-06T03:34:24;13.98;;;12.23;;
1765;SDS011;880;52.452;8.656;2024-03-06T03:36:51;19.05;;;12.75;;
1765;SDS011;880;52.452;8.656;2024-03-06T03:39:18;14.77;;;12.38;;
1765;SDS011;880;52.452;8.656;2024-03-06T03:41:48;18.10;;;14.05;;
1765;SDS011;880;52.452;8.656;2024-03-06T03:44:17;14.40;;;12.73;;
1765;SDS011;880;52.452;8.656;2024-03-06T03:46:47;14.25;;;10.93;;
1765;SDS011;880;52.452;8.656;2024-03-06T03:49:14;13.10;;;11.88;;
1765;SDS011;880;52.452;8.656;2024-03-06T03:51:42;18.13;;;13.82;;
1765;SDS011;880;52.452;8.656;2024-03-06T03:54:09;11.63;;;10.60;;
1765;SDS011;880;52.452;8.656;2024-03-06T03:56:36;12.98;;;11.80;;
1765;SDS011;880;52.452;8.656;2024-03-06T03:59:03;15.90;;;12.75;;
1765;SDS011;880;52.452;8.656;2024-03-06T04:01:31;13.73;;;12.48;;
1765;SDS011;880;52.452;8.656;2024-03-06T04:03:58;14.93;;;12.63;;
1765;SDS011;880;52.452;8.656;2024-03-06T04:06:25;17.02;;;13.88;;
1765;SDS011;880;52.452;8.656;2024-03-06T04:08:52;15.45;;;13.25;;
1765;SDS011;880;52.452;8.656;2024-03-06T04:11:19;16.55;;;13.15;;
1765;SDS011;880;52.452;8.656;2024-03-06T04:13:46;15.60;;;13.38;;
1765;SDS011;880;52.452;8.656;2024-03-06T04:16:17;17.38;;;12.80;;
1765;SDS011;880;52.452;8.656;2024-03-06T04:18:44;17.77;;;11.73;;
1765;SDS011;880;52.452;8.656;2024-03-06T04:21:13;20.45;;;13.20;;
1765;SDS011;880;52.452;8.656;2024-03-06T04:23:41;13.35;;;12.15;;
1765;SDS011;880;52.452;8.656;2024-03-06T04:26:10;14.45;;;12.23;;
1765;SDS011;880;52.452;8.656;2024-03-06T04:28:38;18.52;;;14.50;;
1765;SDS011;880;52.452;8.656;2024-03-06T04:31:05;17.05;;;11.23;;
1765;SDS011;880;52.452;8.656;2024-03-06T04:33:32;17.63;;;13.88;;
1765;SDS011;880;52.452;8.656;2024-03-06T04:36:03;17.75;;;13.45;;
1765;SDS011;880;52.452;8.656;2024-03-06T04:38:34;14.50;;;11.50;;
1765;SDS011;880;52.452;8.656;2024-03-06T04:41:01;19.60;;;12.63;;
1765;SDS011;880;52.452;8.656;2024-03-06T04:43:28;16.70;;;14.90;;
1765;SDS011;880;52.452;8.656;2024-03-06T04:45:56;20.15;;;14.60;;
1765;SDS011;880;52.452;8.656;2024-03-06T04:48:23;17.83;;;14.68;;
1765;SDS011;880;52.452;8.656;2024-03-06T04:50:50;15.68;;;13.32;;
1765;SDS011;880;52.452;8.656;2024-03-06T04:53:17;19.40;;;14.38;;
1765;SDS011;880;52.452;8.656;2024-03-06T04:55:46;13.18;;;9.40;;
1765;SDS011;880;52.452;8.656;2024-03-06T04:58:13;20.08;;;15.13;;
1765;SDS011;880;52.452;8.656;2024-03-06T05:00:40;25.55;;;12.90;;
1765;SDS011;880;52.452;8.656;2024-03-06T05:03:07;18.20;;;14.70;;
1765;SDS011;880;52.452;8.656;2024-03-06T05:05:53;18.75;;;12.55;;
1765;SDS011;880;52.452;8.656;2024-03-06T05:08:37;18.55;;;14.77;;
1765;SDS011;880;52.452;8.656;2024-03-06T05:11:22;21.38;;;13.48;;
1765;SDS011;880;52.452;8.656;2024-03-06T05:14:07;17.08;;;12.23;;
1765;SDS011;880;52.452;8.656;2024-03-06T05:16:51;24.02;;;16.60;;
1765;SDS011;880;52.452;8.656;2024-03-06T05:19:37;18.75;;;13.50;;
1765;SDS011;880;52.452;8.656;2024-03-06T05:22:21;11.88;;;10.65;;
1765;SDS011;880;52.452;8.656;2024-03-06T05:25:07;16.25;;;13.65;;
1765;SDS011;880;52.452;8.656;2024-03-06T05:27:51;24.83;;;15.73;;
1765;SDS011;880;52.452;8.656;2024-03-06T05:30:36;16.38;;;12.32;;
1765;SDS011;880;52.452;8.656;2024-03-06T05:33:21;18.55;;;14.95;;
1765;SDS011;880;52.452;8.656;2024-03-06T05:36:06;19.17;;;13.55;;
1765;SDS011;880;52.452;8.656;2024-03-06T05:38:50;16.67;;;12.88;;
1765;SDS011;880;52.452;8.656;2024-03-06T05:41:36;19.90;;;14.73;;
1765;SDS011;880;52.452;8.656;2024-03-06T05:44:21;18.20;;;14.68;;
1765;SDS011;880;52.452;8.656;2024-03-06T05:47:05;19.55;;;15.70;;
1765;SDS011;880;52.452;8.656;2024-03-06T05:49:50;18.02;;;14.55;;
1765;SDS011;880;52.452;8.656;2024-03-06T05:52:36;15.77;;;12.93;;
1765;SDS011;880;52.452;8.656;2024-03-06T05:55:20;23.17;;;13.65;;
1765;SDS011;880;52.452;8.656;2024-03-06T05:58:05;17.75;;;15.27;;
1765;SDS011;880;52.452;8.656;2024-03-06T06:00:39;18.63;;;15.07;;
1765;SDS011;880;52.452;8.656;2024-03-06T06:03:07;24.83;;;15.43;;
1765;SDS011;880;52.452;8.656;2024-03-06T06:05:38;20.55;;;14.05;;
1765;SDS011;880;52.452;8.656;2024-03-06T06:08:06;18.95;;;14.95;;
1765;SDS011;880;52.452;8.656;2024-03-06T06:10:33;24.67;;;16.92;;
1765;SDS011;880;52.452;8.656;2024-03-06T06:13:01;16.92;;;15.13;;
1765;SDS011;880;52.452;8.656;2024-03-06T06:15:31;23.20;;;14.73;;
1765;SDS011;880;52.452;8.656;2024-03-06T06:17:58;20.42;;;15.63;;
1765;SDS011;880;52.452;8.656;2024-03-06T06:20:25;18.88;;;14.55;;
1765;SDS011;880;52.452;8.656;2024-03-06T06:22:52;20.00;;;17.02;;
1765;SDS011;880;52.452;8.656;2024-03-06T06:25:19;17.65;;;13.70;;
1765;SDS011;880;52.452;8.656;2024-03-06T06:27:46;20.42;;;16.73;;
1765;SDS011;880;52.452;8.656;2024-03-06T06:30:16;22.50;;;15.45;;
1765;SDS011;880;52.452;8.656;2024-03-06T06:32:43;17.00;;;15.30;;
1765;SDS011;880;52.452;8.656;2024-03-06T06:35:11;19.90;;;16.33;;
1765;SDS011;880;52.452;8.656;2024-03-06T06:37:40;17.20;;;15.50;;
1765;SDS011;880;52.452;8.656;2024-03-06T06:40:07;17.85;;;12.93;;
1765;SDS011;880;52.452;8.656;2024-03-06T06:42:35;24.83;;;15.27;;
1765;SDS011;880;52.452;8.656;2024-03-06T06:45:03;17.20;;;14.55;;
1765;SDS011;880;52.452;8.656;2024-03-06T06:47:33;17.25;;;15.45;;
1765;SDS011;880;52.452;8.656;2024-03-06T06:50:00;17.80;;;15.43;;
1765;SDS011;880;52.452;8.656;2024-03-06T06:52:32;22.50;;;13.57;;
1765;SDS011;880;52.452;8.656;2024-03-06T06:54:59;21.05;;;16.13;;
1765;SDS011;880;52.452;8.656;2024-03-06T06:57:27;17.63;;;15.73;;
1765;SDS011;880;52.452;8.656;2024-03-06T06:59:53;20.95;;;17.85;;
1765;SDS011;880;52.452;8.656;2024-03-06T07:02:20;19.67;;;15.90;;
1765;SDS011;880;52.452;8.656;2024-03-06T07:04:48;19.30;;;16.17;;
1765;SDS011;880;52.452;8.656;2024-03-06T07:07:15;19.38;;;16.67;;
1765;SDS011;880;52.452;8.656;2024-03-06T07:09:43;19.42;;;17.42;;
1765;SDS011;880;52.452;8.656;2024-03-06T07:12:10;17.65;;;14.30;;
1765;SDS011;880;52.452;8.656;2024-03-06T07:14:37;22.08;;;13.30;;
1765;SDS011;880;52.452;8.656;2024-03-06T07:17:04;19.77;;;17.13;;
1765;SDS011;880;52.452;8.656;2024-03-06T07:19:31;18.92;;;15.85;;
1765;SDS011;880;52.452;8.656;2024-03-06T07:21:58;18.20;;;15.00;;
1765;SDS011;880;52.452;8.656;2024-03-06T07:24:25;20.50;;;15.55;;
1765;SDS011;880;52.452;8.656;2024-03-06T07:26:53;20.20;;;15.35;;
1765;SDS011;880;52.452;8.656;2024-03-06T07:29:20;12.23;;;11.20;;
1765;SDS011;880;52.452;8.656;2024-03-06T07:31:47;20.50;;;15.68;;
1765;SDS011;880;52.452;8.656;2024-03-06T07:34:14;18.70;;;16.65;;
1765;SDS011;880;52.452;8.656;2024-03-06T07:36:41;23.45;;;16.70;;
1765;SDS011;880;52.452;8.656;2024-03-06T07:39:08;22.08;;;16.83;;
1765;SDS011;880;52.452;8.656;2024-03-06T07:41:35;17.88;;;15.85;;
1765;SDS011;880;52.452;8.656;2024-03-06T07:44:02;16.05;;;14.30;;
1765;SDS011;880;52.452;8.656;2024-03-06T07:46:29;18.92;;;16.20;;
1765;SDS011;880;52.452;8.656;2024-03-06T07:48:56;18.98;;;16.92;;
1765;SDS011;880;52.452;8.656;2024-03-06T07:51:23;18.05;;;15.60;;
1765;SDS011;880;52.452;8.656;2024-03-06T07:53:50;19.00;;;15.63;;
1765;SDS011;880;52.452;8.656;2024-03-06T07:56:18;18.75;;;16.80;;
1765;SDS011;880;52.452;8.656;2024-03-06T07:58:45;20.08;;;16.38;;
1765;SDS011;880;52.452;8.656;2024-03-06T08:01:12;21.70;;;17.17;;
1765;SDS011;880;52.452;8.656;2024-03-06T08:03:39;16.88;;;14.20;;
1765;SDS011;880;52.452;8.656;2024-03-06T08:06:10;17.05;;;13.05;;
1765;SDS011;880;52.452;8.656;2024-03-06T08:08:39;17.17;;;14.57;;
1765;SDS011;880;52.452;8.656;2024-03-06T08:11:07;23.90;;;14.77;;
1765;SDS011;880;52.452;8.656;2024-03-06T08:13:37;17.45;;;14.35;;
1765;SDS011;880;52.452;8.656;2024-03-06T08:16:05;18.48;;;14.80;;
1765;SDS011;880;52.452;8.656;2024-03-06T08:18:33;20.95;;;16.35;;
1765;SDS011;880;52.452;8.656;2024-03-06T08:21:03;17.83;;;15.00;;
1765;SDS011;880;52.452;8.656;2024-03-06T08:23:32;19.75;;;13.90;;
1765;SDS011;880;52.452;8.656;2024-03-06T08:26:00;20.63;;;15.77;;
1765;SDS011;880;52.452;8.656;2024-03-06T08:28:27;18.67;;;15.35;;
1765;SDS011;880;52.452;8.656;2024-03-06T08:30:54;15.25;;;13.95;;
1765;SDS011;880;52.452;8.656;2024-03-06T08:33:21;15.20;;;12.82;;
1765;SDS011;880;52.452;8.656;2024-03-06T08:35:49;18.48;;;16.30;;
1765;SDS011;880;52.452;8.656;2024-03-06T08:38:16;19.27;;;16.20;;
1765;SDS011;880;52.452;8.656;2024-03-06T08:40:43;19.33;;;15.82;;
1765;SDS011;880;52.452;8.656;2024-03-06T08:43:12;19.35;;;14.63;;
1765;SDS011;880;52.452;8.656;2024-03-06T08:45:41;17.83;;;14.93;;
1765;SDS011;880;52.452;8.656;2024-03-06T08:48:09;19.77;;;15.82;;
1765;SDS011;880;52.452;8.656;2024-03-06T08:50:36;17.98;;;15.35;;
1765;SDS011;880;52.452;8.656;2024-03-06T08:53:04;18.92;;;15.07;;
1765;SDS011;880;52.452;8.656;2024-03-06T08:55:31;19.30;;;15.30;;
1765;SDS011;880;52.452;8.656;2024-03-06T08:57:58;19.73;;;16.15;;
1765;SDS011;880;52.452;8.656;2024-03-06T09:00:27;15.60;;;13.73;;
1765;SDS011;880;52.452;8.656;2024-03-06T09:02:54;21.33;;;17.20;;
1765;SDS011;880;52.452;8.656;2024-03-06T09:05:21;18.05;;;14.23;;
1765;SDS011;880;52.452;8.656;2024-03-06T09:07:48;22.23;;;16.70;;
1765;SDS011;880;52.452;8.656;2024-03-06T09:10:16;21.73;;;13.95;;
1765;SDS011;880;52.452;8.656;2024-03-06T09:12:45;17.00;;;14.25;;
1765;SDS011;880;52.452;8.656;2024-03-06T09:15:12;20.45;;;17.80;;
1765;SDS011;880;52.452;8.656;2024-03-06T09:17:41;16.77;;;13.90;;
1765;SDS011;880;52.452;8.656;2024-03-06T09:20:08;20.80;;;15.82;;
1765;SDS011;880;52.452;8.656;2024-03-06T09:22:41;18.48;;;16.42;;
1765;SDS011;880;52.452;8.656;2024-03-06T09:25:09;18.02;;;15.40;;
1765;SDS011;880;52.452;8.656;2024-03-06T09:27:40;13.30;;;11.55;;
1765;SDS011;880;52.452;8.656;2024-03-06T09:30:08;18.13;;;16.38;;
1765;SDS011;880;52.452;8.656;2024-03-06T09:32:37;24.02;;;17.15;;
1765;SDS011;880;52.452;8.656;2024-03-06T09:35:04;21.73;;;16.27;;
1765;SDS011;880;52.452;8.656;2024-03-06T09:37:32;21.48;;;17.40;;
1765;SDS011;880;52.452;8.656;2024-03-06T09:39:59;23.70;;;15.43;;
1765;SDS011;880;52.452;8.656;2024-03-06T09:42:26;18.55;;;15.75;;
1765;SDS011;880;52.452;8.656;2024-03-06T09:44:54;21.48;;;17.52;;
1765;SDS011;880;52.452;8.656;2024-03-06T09:47:21;18.75;;;16.73;;
1765;SDS011;880;52.452;8.656;2024-03-06T09:49:51;19.73;;;13.73;;
1765;SDS011;880;52.452;8.656;2024-03-06T09:54:56;14.65;;;13.27;;
1765;SDS011;880;52.452;8.656;2024-03-06T09:59:50;16.75;;;13.23;;
1765;SDS011;880;52.452;8.656;2024-03-06T10:02:19;16.17;;;14.27;;
1765;SDS011;880;52.452;8.656;2024-03-06T10:05:20;14.35;;;12.93;;
1765;SDS011;880;52.452;8.656;2024-03-06T10:07:49;25.08;;;17.13;;
1765;SDS011;880;52.452;8.656;2024-03-06T10:10:18;18.08;;;16.15;;
1765;SDS011;880;52.452;8.656;2024-03-06T10:12:51;18.95;;;14.45;;
1765;SDS011;880;52.452;8.656;2024-03-06T10:15:18;21.73;;;18.15;;
1765;SDS011;880;52.452;8.656;2024-03-06T10:17:45;21.23;;;15.20;;
1765;SDS011;880;52.452;8.656;2024-03-06T10:20:16;18.15;;;14.88;;
1765;SDS011;880;52.452;8.656;2024-03-06T10:22:52;24.55;;;14.90;;
1765;SDS011;880;52.452;8.656;2024-03-06T10:25:24;25.10;;;16.27;;
1765;SDS011;880;52.452;8.656;2024-03-06T10:30:50;19.80;;;15.13;;
1765;SDS011;880;52.452;8.656;2024-03-06T10:33:18;19.02;;;16.77;;
1765;SDS011;880;52.452;8.656;2024-03-06T10:35:46;19.02;;;16.10;;
1765;SDS011;880;52.452;8.656;2024-03-06T10:38:18;21.88;;;15.68;;
1765;SDS011;880;52.452;8.656;2024-03-06T10:40:46;22.13;;;17.67;;
1765;SDS011;880;52.452;8.656;2024-03-06T10:43:18;23.63;;;15.63;;
1765;SDS011;880;52.452;8.656;2024-03-06T10:45:50;24.30;;;17.52;;
1765;SDS011;880;52.452;8.656;2024-03-06T10:48:28;17.92;;;16.10;;
1765;SDS011;880;52.452;8.656;2024-03-06T10:50:55;22.63;;;14.02;;
1765;SDS011;880;52.452;8.656;2024-03-06T10:53:24;18.42;;;16.40;;
1765;SDS011;880;52.452;8.656;2024-03-06T10:55:55;23.70;;;16.42;;
1765;SDS011;880;52.452;8.656;2024-03-06T10:58:24;18.25;;;14.45;;
1765;SDS011;880;52.452;8.656;2024-03-06T11:00:52;19.80;;;17.58;;
1765;SDS011;880;52.452;8.656;2024-03-06T11:03:21;19.50;;;17.13;;
1765;SDS011;880;52.452;8.656;2024-03-06T11:05:49;21.33;;;16.85;;
1765;SDS011;880;52.452;8.656;2024-03-06T11:08:18;22.70;;;17.00;;
1765;SDS011;880;52.452;8.656;2024-03-06T11:10:46;26.30;;;16.80;;
1765;SDS011;880;52.452;8.656;2024-03-06T11:15:47;16.75;;;13.70;;
1765;SDS011;880;52.452;8.656;2024-03-06T11:21:41;18.95;;;17.02;;
1765;SDS011;880;52.452;8.656;2024-03-06T11:26:37;18.25;;;16.48;;
1765;SDS011;880;52.452;8.656;2024-03-06T11:29:19;20.58;;;17.60;;
1765;SDS011;880;52.452;8.656;2024-03-06T11:32:03;21.50;;;17.50;;
1765;SDS011;880;52.452;8.656;2024-03-06T11:34:34;21.52;;;18.17;;
1765;SDS011;880;52.452;8.656;2024-03-06T11:37:05;16.85;;;14.07;;
1765;SDS011;880;52.452;8.656;2024-03-06T11:39:38;17.88;;;16.05;;
1765;SDS011;880;52.452;8.656;2024-03-06T11:42:07;21.25;;;16.48;;
1765;SDS011;880;52.452;8.656;2024-03-06T11:44:35;20.75;;;15.13;;
1765;SDS011;880;52.452;8.656;2024-03-06T11:47:03;25.50;;;18.15;;
1765;SDS011;880;52.452;8.656;2024-03-06T11:49:35;20.00;;;17.02;;
1765;SDS011;880;52.452;8.656;2024-03-06T11:52:05;19.45;;;15.00;;
1765;SDS011;880;52.452;8.656;2024-03-06T11:54:37;19.35;;;17.05;;
1765;SDS011;880;52.452;8.656;2024-03-06T11:57:04;20.35;;;15.13;;
1765;SDS011;880;52.452;8.656;2024-03-06T11:59:33;20.10;;;18.08;;
1765;SDS011;880;52.452;8.656;2024-03-06T12:02:03;22.08;;;14.23;;
1765;SDS011;880;52.452;8.656;2024-03-06T12:04:33;19.65;;;17.55;;
1765;SDS011;880;52.452;8.656;2024-03-06T12:07:03;20.60;;;15.35;;
1765;SDS011;880;52.452;8.656;2024-03-06T12:09:35;17.48;;;13.50;;
1765;SDS011;880;52.452;8.656;2024-03-06T12:12:08;21.08;;;15.73;;
1765;SDS011;880;52.452;8.656;2024-03-06T12:14:36;19.15;;;16.58;;
1765;SDS011;880;52.452;8.656;2024-03-06T12:17:06;20.35;;;16.60;;
1765;SDS011;880;52.452;8.656;2024-03-06T12:19:42;21.25;;;19.02;;
1765;SDS011;880;52.452;8.656;2024-03-06T12:22:11;18.65;;;14.60;;
1765;SDS011;880;52.452;8.656;2024-03-06T12:24:38;22.05;;;18.80;;
1765;SDS011;880;52.452;8.656;2024-03-06T12:27:06;18.10;;;15.23;;
1765;SDS011;880;52.452;8.656;2024-03-06T12:29:34;20.95;;;15.25;;
1765;SDS011;880;52.452;8.656;2024-03-06T12:32:03;21.27;;;16.40;;
1765;SDS011;880;52.452;8.656;2024-03-06T12:34:31;19.75;;;16.63;;
1765;SDS011;880;52.452;8.656;2024-03-06T12:37:10;19.08;;;17.00;;
1765;SDS011;880;52.452;8.656;2024-03-06T12:39:38;18.67;;;15.38;;
1765;SDS011;880;52.452;8.656;2024-03-06T12:42:09;24.67;;;15.88;;
1765;SDS011;880;52.452;8.656;2024-03-06T12:44:37;21.88;;;15.93;;
1765;SDS011;880;52.452;8.656;2024-03-06T12:47:06;19.95;;;14.98;;
1765;SDS011;880;52.452;8.656;2024-03-06T12:49:33;16.70;;;14.70;;
1765;SDS011;880;52.452;8.656;2024-03-06T12:52:00;22.48;;;15.20;;
1765;SDS011;880;52.452;8.656;2024-03-06T12:54:31;23.40;;;15.50;;
1765;SDS011;880;52.452;8.656;2024-03-06T12:56:58;23.30;;;18.38;;
1765;SDS011;880;52.452;8.656;2024-03-06T12:59:25;20.67;;;17.70;;
1765;SDS011;880;52.452;8.656;2024-03-06T13:01:52;23.02;;;14.50;;
1765;SDS011;880;52.452;8.656;2024-03-06T13:04:20;19.73;;;15.57;;
1765;SDS011;880;52.452;8.656;2024-03-06T13:06:47;24.20;;;16.15;;
1765;SDS011;880;52.452;8.656;2024-03-06T13:09:14;24.33;;;18.30;;
1765;SDS011;880;52.452;8.656;2024-03-06T13:11:41;22.63;;;18.30;;
1765;SDS011;880;52.452;8.656;2024-03-06T13:14:08;27.13;;;19.15;;
1765;SDS011;880;52.452;8.656;2024-03-06T13:16:38;23.58;;;16.20;;
1765;SDS011;880;52.452;8.656;2024-03-06T13:19:06;22.45;;;15.98;;
1765;SDS011;880;52.452;8.656;2024-03-06T13:21:34;22.25;;;16.02;;
1765;SDS011;880;52.452;8.656;2024-03-06T13:24:01;18.67;;;16.77;;
1765;SDS011;880;52.452;8.656;2024-03-06T13:26:29;20.38;;;18.20;;
1765;SDS011;880;52.452;8.656;2024-03-06T13:28:56;22.05;;;19.17;;
1765;SDS011;880;52.452;8.656;2024-03-06T13:31:23;21.15;;;17.77;;
1765;SDS011;880;52.452;8.656;2024-03-06T13:33:50;24.85;;;15.70;;
1765;SDS011;880;52.452;8.656;2024-03-06T13:36:16;23.95;;;14.82;;
1765;SDS011;880;52.452;8.656;2024-03-06T13:38:43;23.77;;;16.25;;
1765;SDS011;880;52.452;8.656;2024-03-06T13:41:11;21.95;;;15.18;;
1765;SDS011;880;52.452;8.656;2024-03-06T13:43:38;25.58;;;16.90;;
1765;SDS011;880;52.452;8.656;2024-03-06T13:46:05;26.05;;;17.33;;
1765;SDS011;880;52.452;8.656;2024-03-06T13:48:32;23.80;;;16.08;;
1765;SDS011;880;52.452;8.656;2024-03-06T13:50:59;20.80;;;15.45;;
1765;SDS011;880;52.452;8.656;2024-03-06T13:53:26;25.73;;;16.95;;
1765;SDS011;880;52.452;8.656;2024-03-06T13:55:53;18.98;;;15.88;;
1765;SDS011;880;52.452;8.656;2024-03-06T13:58:20;19.63;;;14.65;;
1765;SDS011;880;52.452;8.656;2024-03-06T14:00:47;20.60;;;15.63;;
1765;SDS011;880;52.452;8.656;2024-03-06T14:03:14;19.20;;;14.98;;
1765;SDS011;880;52.452;8.656;2024-03-06T14:05:41;23.17;;;16.50;;
1765;SDS011;880;52.452;8.656;2024-03-06T14:08:08;24.60;;;16.70;;
1765;SDS011;880;52.452;8.656;2024-03-06T14:10:39;24.30;;;15.98;;
1765;SDS011;880;52.452;8.656;2024-03-06T14:13:06;23.52;;;19.73;;
1765;SDS011;880;52.452;8.656;2024-03-06T14:15:35;34.78;;;19.25;;
1765;SDS011;880;52.452;8.656;2024-03-06T14:18:04;24.80;;;17.60;;
1765;SDS011;880;52.452;8.656;2024-03-06T14:20:32;24.63;;;20.45;;
1765;SDS011;880;52.452;8.656;2024-03-06T14:22:59;23.65;;;16.00;;
1765;SDS011;880;52.452;8.656;2024-03-06T14:25:26;20.60;;;15.80;;
1765;SDS011;880;52.452;8.656;2024-03-06T14:27:53;22.38;;;18.67;;
1765;SDS011;880;52.452;8.656;2024-03-06T14:30:20;20.83;;;14.65;;
1765;SDS011;880;52.452;8.656;2024-03-06T14:32:48;21.77;;;14.80;;
1765;SDS011;880;52.452;8.656;2024-03-06T14:35:15;22.17;;;17.27;;
1765;SDS011;880;52.452;8.656;2024-03-06T14:37:42;24.15;;;15.40;;
1765;SDS011;880;52.452;8.656;2024-03-06T14:40:09;23.77;;;16.00;;
1765;SDS011;880;52.452;8.656;2024-03-06T14:42:37;22.30;;;14.80;;
1765;SDS011;880;52.452;8.656;2024-03-06T14:45:04;22.90;;;17.85;;
1765;SDS011;880;52.452;8.656;2024-03-06T14:47:32;25.98;;;18.02;;
1765;SDS011;880;52.452;8.656;2024-03-06T14:49:59;22.63;;;18.48;;
1765;SDS011;880;52.452;8.656;2024-03-06T14:52:26;25.80;;;16.05;;
1765;SDS011;880;52.452;8.656;2024-03-06T14:54:53;23.90;;;17.92;;
1765;SDS011;880;52.452;8.656;2024-03-06T14:57:20;25.58;;;16.50;;
1765;SDS011;880;52.452;8.656;2024-03-06T14:59:49;22.23;;;15.73;;
1765;SDS011;880;52.452;8.656;2024-03-06T15:02:16;22.42;;;15.82;;
1765;SDS011;880;52.452;8.656;2024-03-06T15:04:43;24.83;;;16.50;;
1765;SDS011;880;52.452;8.656;2024-03-06T15:07:10;21.48;;;18.60;;
1765;SDS011;880;52.452;8.656;2024-03-06T15:09:38;24.75;;;17.83;;
1765;SDS011;880;52.452;8.656;2024-03-06T15:12:05;29.13;;;16.80;;
1765;SDS011;880;52.452;8.656;2024-03-06T15:14:33;20.52;;;18.38;;
1765;SDS011;880;52.452;8.656;2024-03-06T15:17:11;23.08;;;17.65;;
1765;SDS011;880;52.452;8.656;2024-03-06T15:19:38;25.33;;;18.52;;
1765;SDS011;880;52.452;8.656;2024-03-06T15:22:06;24.70;;;17.52;;
1765;SDS011;880;52.452;8.656;2024-03-06T15:24:33;27.00;;;17.13;;
1765;SDS011;880;52.452;8.656;2024-03-06T15:27:00;24.70;;;17.98;;
1765;SDS011;880;52.452;8.656;2024-03-06T15:29:28;32.35;;;19.35;;